createdAt,value
2023-06-04T00:01:54.901Z,95575.64
2023-06-04T00:04:24.519Z,95574.44
2023-06-04T00:06:52.626Z,95572.64
2023-06-04T00:09:20.828Z,95571.52
2023-06-04T00:11:48.865Z,95573.79
2023-06-04T00:14:17.307Z,95576.09
2023-06-04T00:16:45.499Z,95579.89
2023-06-04T00:19:13.644Z,95581.13
2023-06-04T00:21:41.627Z,95583.70
2023-06-04T00:24:10.513Z,95580.13
2023-06-04T00:26:40.199Z,95584.82
2023-06-04T00:29:08.164Z,95586.96
2023-06-04T00:31:36.839Z,95590.41
2023-06-04T00:34:05.138Z,95592.52
2023-06-04T00:36:33.234Z,95590.59
2023-06-04T00:39:01.255Z,95590.11
2023-06-04T00:41:29.713Z,95585.91
2023-06-04T00:43:57.838Z,95583.06
2023-06-04T00:46:26.887Z,95581.98
2023-06-04T00:48:56.102Z,95582.17
2023-06-04T00:51:24.538Z,95581.27
2023-06-04T00:53:53.060Z,95579.45
2023-06-04T00:56:21.042Z,95583.10
2023-06-04T00:58:49.165Z,95586.87
2023-06-04T01:01:28.277Z,95587.52
2023-06-04T01:03:57.433Z,95594.71
2023-06-04T01:06:29.831Z,95591.80
2023-06-04T01:08:59.756Z,95593.75
2023-06-04T01:11:35.570Z,95591.36
2023-06-04T01:14:04.633Z,95589.86
2023-06-04T01:16:37.526Z,95593.31
2023-06-04T01:19:11.975Z,95592.13
2023-06-04T01:21:40.681Z,95594.95
2023-06-04T01:24:09.389Z,95590.36
2023-06-04T01:26:38.897Z,95593.52
2023-06-04T01:29:08.405Z,95595.61
2023-06-04T01:31:37.234Z,95605.34
2023-06-04T01:34:08.642Z,95609.61
2023-06-04T01:36:38.234Z,95612.45
2023-06-04T01:39:06.173Z,95614.89
2023-06-04T01:41:34.344Z,95610.66
2023-06-04T01:44:02.988Z,95610.45
2023-06-04T01:46:32.251Z,95607.28
2023-06-04T01:49:00.773Z,95611.08
2023-06-04T01:51:28.699Z,95609.33
2023-06-04T01:53:56.592Z,95605.04
2023-06-04T01:56:24.556Z,95611.35
2023-06-04T01:58:53.214Z,95610.98
2023-06-04T02:01:21.636Z,95608.78
2023-06-04T02:03:49.727Z,95611.91
2023-06-04T02:06:17.908Z,95614.29
2023-06-04T02:08:46.045Z,95619.42
2023-06-04T02:11:14.065Z,95625.00
2023-06-04T02:13:42.237Z,95627.51
2023-06-04T02:16:10.271Z,95623.48
2023-06-04T02:18:39.203Z,95627.40
2023-06-04T02:21:07.390Z,95634.90
2023-06-04T02:23:35.510Z,95637.42
2023-06-04T02:26:03.526Z,95641.39
2023-06-04T02:28:31.552Z,95636.34
2023-06-04T02:30:59.623Z,95644.14
2023-06-04T02:33:27.754Z,95648.47
2023-06-04T02:35:56.998Z,95646.38
2023-06-04T02:38:25.159Z,95648.95
2023-06-04T02:40:53.077Z,95648.44
2023-06-04T02:43:21.349Z,95651.73
2023-06-04T02:45:49.580Z,95657.41
2023-06-04T02:48:18.143Z,95656.83
2023-06-04T02:50:46.293Z,95656.79
2023-06-04T02:53:14.251Z,95657.34
2023-06-04T02:55:42.983Z,95655.58
2023-06-04T02:58:11.106Z,95663.84
2023-06-04T03:00:39.179Z,95662.98
2023-06-04T03:03:07.239Z,95661.40
2023-06-04T03:05:35.237Z,95656.83
2023-06-04T03:08:05.260Z,95657.42
2023-06-04T03:10:33.377Z,95659.36
2023-06-04T03:13:01.408Z,95657.05
2023-06-04T03:15:29.409Z,95655.77
2023-06-04T03:17:59.056Z,95659.01
2023-06-04T03:20:27.108Z,95662.51
2023-06-04T03:22:55.625Z,95664.43
2023-06-04T03:25:24.173Z,95667.74
2023-06-04T03:27:52.543Z,95669.45
2023-06-04T03:30:20.791Z,95660.08
2023-06-04T03:32:59.181Z,95660.20
2023-06-04T03:35:27.641Z,95663.63
2023-06-04T03:37:55.852Z,95668.83
2023-06-04T03:40:24.106Z,95666.64
2023-06-04T03:42:52.411Z,95667.88
2023-06-04T03:45:22.220Z,95669.25
2023-06-04T03:47:51.259Z,95668.42
2023-06-04T03:50:19.968Z,95676.00
2023-06-04T03:52:49.510Z,95679.88
2023-06-04T03:55:17.663Z,95681.24
2023-06-04T03:57:46.771Z,95679.89
2023-06-04T04:00:16.043Z,95682.73
2023-06-04T04:02:47.010Z,95687.87
2023-06-04T04:05:21.503Z,95683.77
2023-06-04T04:07:50.086Z,95680.75
2023-06-04T04:10:21.208Z,95676.25
2023-06-04T04:12:49.383Z,95676.71
2023-06-04T04:15:18.622Z,95675.25
2023-06-04T04:17:46.984Z,95673.80
2023-06-04T04:20:17.442Z,95678.13
2023-06-04T04:22:51.463Z,95683.40
2023-06-04T04:25:21.216Z,95683.21
2023-06-04T04:27:49.703Z,95682.27
2023-06-04T04:30:18.958Z,95683.98
2023-06-04T04:32:52.974Z,95679.68
2023-06-04T04:35:27.892Z,95681.66
2023-06-04T04:37:58.357Z,95675.52
2023-06-04T04:40:27.087Z,95674.54
2023-06-04T04:42:56.512Z,95672.23
2023-06-04T04:45:24.796Z,95665.89
2023-06-04T04:47:53.793Z,95665.10
2023-06-04T04:50:22.101Z,95666.20
2023-06-04T04:52:50.674Z,95662.88
2023-06-04T04:55:18.771Z,95659.55
2023-06-04T04:57:47.736Z,95658.11
2023-06-04T05:00:16.845Z,95658.30
2023-06-04T05:02:45.722Z,95664.31
2023-06-04T05:05:14.266Z,95661.67
2023-06-04T05:07:42.726Z,95666.29
2023-06-04T05:10:11.472Z,95663.23
2023-06-04T05:12:40.521Z,95668.41
2023-06-04T05:15:09.688Z,95664.92
2023-06-04T05:17:41.713Z,95658.67
2023-06-04T05:20:13.172Z,95662.79
2023-06-04T05:22:44.575Z,95666.21
2023-06-04T05:25:12.659Z,95662.95
2023-06-04T05:27:41.328Z,95661.83
2023-06-04T05:30:10.005Z,95664.38
2023-06-04T05:32:42.072Z,95666.14
2023-06-04T05:35:12.381Z,95666.68
2023-06-04T05:37:43.189Z,95664.15
2023-06-04T05:40:12.644Z,95663.08
2023-06-04T05:42:42.263Z,95665.40
2023-06-04T05:45:11.282Z,95662.55
2023-06-04T05:47:39.484Z,95663.36
2023-06-04T05:50:07.751Z,95664.04
2023-06-04T05:52:38.233Z,95661.67
2023-06-04T05:55:09.082Z,95665.71
2023-06-04T05:57:37.658Z,95669.88
2023-06-04T06:00:12.155Z,95672.95
2023-06-04T06:02:44.960Z,95671.57
2023-06-04T06:05:20.240Z,95675.02
2023-06-04T06:07:48.819Z,95669.94
2023-06-04T06:10:17.597Z,95675.20
2023-06-04T06:12:45.960Z,95674.20
2023-06-04T06:15:14.278Z,95674.98
2023-06-04T06:17:43.813Z,95677.17
2023-06-04T06:20:13.240Z,95673.67
2023-06-04T06:22:41.437Z,95677.48
2023-06-04T06:25:09.991Z,95680.77
2023-06-04T06:27:42.783Z,95682.61
2023-06-04T06:30:13.345Z,95681.56
2023-06-04T06:32:41.594Z,95684.04
2023-06-04T06:35:09.759Z,95687.49
2023-06-04T06:37:43.019Z,95687.60
2023-06-04T06:40:11.798Z,95683.88
2023-06-04T06:42:39.808Z,95688.55
2023-06-04T06:45:08.051Z,95686.99
2023-06-04T06:47:36.304Z,95689.02
2023-06-04T06:50:04.556Z,95686.17
2023-06-04T06:52:34.365Z,95687.39
2023-06-04T06:55:02.947Z,95688.10
2023-06-04T06:57:31.633Z,95685.87
2023-06-04T06:59:59.907Z,95685.94
2023-06-04T07:02:28.085Z,95683.92
2023-06-04T07:04:56.407Z,95687.36
2023-06-04T07:07:24.899Z,95684.09
2023-06-04T07:09:52.853Z,95685.06
2023-06-04T07:12:20.836Z,95685.27
2023-06-04T07:14:48.800Z,95684.59
2023-06-04T07:17:16.836Z,95688.33
2023-06-04T07:19:44.903Z,95686.44
2023-06-04T07:22:12.962Z,95692.16
2023-06-04T07:24:41.095Z,95687.70
2023-06-04T07:27:16.025Z,95693.73
2023-06-04T07:29:45.003Z,95695.69
2023-06-04T07:32:13.885Z,95700.42
2023-06-04T07:34:41.867Z,95701.22
2023-06-04T07:37:10.679Z,95702.61
2023-06-04T07:39:40.235Z,95702.95
2023-06-04T07:42:08.360Z,95703.26
2023-06-04T07:44:38.177Z,95702.98
2023-06-04T07:47:06.701Z,95702.21
2023-06-04T07:49:34.751Z,95702.56
2023-06-04T07:52:02.818Z,95701.09
2023-06-04T07:54:30.833Z,95701.50
2023-06-04T07:56:59.375Z,95703.14
2023-06-04T07:59:27.658Z,95699.39
2023-06-04T08:01:55.679Z,95699.21
2023-06-04T08:04:23.810Z,95699.04
2023-06-04T08:06:52.955Z,95695.52
2023-06-04T08:09:20.981Z,95696.37
2023-06-04T08:11:50.245Z,95702.42
2023-06-04T08:14:18.563Z,95701.88
2023-06-04T08:16:47.039Z,95701.77
2023-06-04T08:19:17.076Z,95701.48
2023-06-04T08:21:46.204Z,95700.01
2023-06-04T08:24:14.421Z,95705.64
2023-06-04T08:26:43.045Z,95706.73
2023-06-04T08:29:11.109Z,95707.25
2023-06-04T08:31:40.656Z,95709.42
2023-06-04T08:34:09.485Z,95705.17
2023-06-04T08:36:37.463Z,95709.48
2023-06-04T08:39:05.586Z,95706.82
2023-06-04T08:41:59.939Z,95708.90
2023-06-04T08:44:28.664Z,95715.70
2023-06-04T08:47:02.953Z,95714.81
2023-06-04T08:49:35.251Z,95720.63
2023-06-04T08:52:03.702Z,95722.14
2023-06-04T08:54:32.592Z,95724.43
2023-06-04T08:57:01.869Z,95723.90
2023-06-04T08:59:30.187Z,95723.06
2023-06-04T09:02:00.000Z,95722.52
2023-06-04T09:04:29.029Z,95714.31
2023-06-04T09:07:02.117Z,95712.77
2023-06-04T09:09:31.014Z,95711.75
2023-06-04T09:12:02.852Z,95710.06
2023-06-04T09:14:30.918Z,95706.29
2023-06-04T09:17:00.327Z,95709.18
2023-06-04T09:19:28.342Z,95710.79
2023-06-04T09:21:57.728Z,95713.25
2023-06-04T09:24:26.681Z,95709.00
2023-06-04T09:26:54.643Z,95709.41
2023-06-04T09:29:22.616Z,95707.58
2023-06-04T09:31:59.813Z,95708.52
2023-06-04T09:34:28.854Z,95703.99
2023-06-04T09:36:57.793Z,95702.41
2023-06-04T09:39:25.866Z,95702.63
2023-06-04T09:42:01.550Z,95699.17
2023-06-04T09:44:30.408Z,95702.48
2023-06-04T09:46:59.163Z,95702.21
2023-06-04T09:49:27.421Z,95702.95
2023-06-04T09:51:55.688Z,95702.34
2023-06-04T09:54:23.749Z,95698.45
2023-06-04T09:56:51.856Z,95703.29
2023-06-04T09:59:20.331Z,95701.70
2023-06-04T10:01:48.662Z,95694.58
2023-06-04T10:04:16.764Z,95693.63
2023-06-04T10:06:45.001Z,95692.30
2023-06-04T10:09:15.242Z,95689.48
2023-06-04T10:11:48.241Z,95697.25
2023-06-04T10:14:20.935Z,95699.73
2023-06-04T10:16:49.981Z,95706.54
2023-06-04T10:19:19.388Z,95706.91
2023-06-04T10:21:47.841Z,95702.77
2023-06-04T10:24:15.895Z,95707.52
2023-06-04T10:26:43.938Z,95708.23
2023-06-04T10:29:13.842Z,95710.64
2023-06-04T10:31:42.753Z,95707.50
2023-06-04T10:34:11.059Z,95705.80
2023-06-04T10:36:46.328Z,95701.23
2023-06-04T10:39:14.400Z,95703.68
2023-06-04T10:41:43.280Z,95702.59
2023-06-04T10:44:11.343Z,95702.48
2023-06-04T10:46:44.063Z,95698.77
2023-06-04T10:49:13.483Z,95698.76
2023-06-04T10:51:42.171Z,95695.39
2023-06-04T10:54:10.603Z,95696.98
2023-06-04T10:56:39.065Z,95701.50
2023-06-04T10:59:14.972Z,95700.23
2023-06-04T11:01:43.232Z,95701.21
2023-06-04T11:04:24.718Z,95707.27
2023-06-04T11:07:12.122Z,95708.02
2023-06-04T11:09:49.948Z,95705.06
2023-06-04T11:12:17.934Z,95709.92
2023-06-04T11:14:59.666Z,95709.10
2023-06-04T11:17:27.969Z,95712.80
2023-06-04T11:19:56.993Z,95714.41
2023-06-04T11:22:25.306Z,95715.14
2023-06-04T11:25:02.430Z,95717.27
2023-06-04T11:27:36.673Z,95718.98
2023-06-04T11:30:08.232Z,95717.66
2023-06-04T11:32:36.726Z,95717.85
2023-06-04T11:35:08.484Z,95718.71
2023-06-04T11:37:36.779Z,95715.23
2023-06-04T11:40:16.358Z,95721.48
2023-06-04T11:42:44.855Z,95719.86
2023-06-04T11:45:13.835Z,95719.29
2023-06-04T11:47:52.548Z,95719.74
2023-06-04T11:50:21.491Z,95723.06
2023-06-04T11:52:50.076Z,95726.31
2023-06-04T11:55:24.090Z,95729.81
2023-06-04T11:57:52.455Z,95729.56
2023-06-04T12:00:21.338Z,95733.61
2023-06-04T12:02:52.259Z,95736.15
2023-06-04T12:05:21.838Z,95732.89
2023-06-04T12:07:53.143Z,95732.55
2023-06-04T12:10:21.984Z,95736.73
2023-06-04T12:12:57.118Z,95735.77
2023-06-04T12:15:25.220Z,95738.72
2023-06-04T12:17:55.496Z,95742.45
2023-06-04T12:20:37.593Z,95742.67
2023-06-04T12:23:07.040Z,95737.62
2023-06-04T12:25:35.803Z,95738.30
2023-06-04T12:28:05.636Z,95741.98
2023-06-04T12:30:40.959Z,95740.52
2023-06-04T12:33:09.036Z,95742.73
2023-06-04T12:35:37.288Z,95744.35
2023-06-04T12:38:06.582Z,95743.20
2023-06-04T12:40:34.866Z,95745.77
2023-06-04T12:43:03.219Z,95748.21
2023-06-04T12:45:31.331Z,95751.14
2023-06-04T12:47:59.372Z,95751.08
2023-06-04T12:50:27.497Z,95754.61
2023-06-04T12:52:56.004Z,95755.98
2023-06-04T12:55:25.216Z,95756.36
2023-06-04T12:57:54.760Z,95753.23
2023-06-04T13:00:22.964Z,95751.68
2023-06-04T13:02:51.007Z,95749.86
2023-06-04T13:05:19.073Z,95745.84
2023-06-04T13:07:47.157Z,95744.19
2023-06-04T13:10:15.380Z,95743.95
2023-06-04T13:12:43.500Z,95745.35
2023-06-04T13:15:12.333Z,95749.41
2023-06-04T13:17:40.269Z,95745.89
2023-06-04T13:20:09.021Z,95743.98
2023-06-04T13:22:36.982Z,95742.14
2023-06-04T13:25:05.179Z,95746.08
2023-06-04T13:27:33.146Z,95745.38
2023-06-04T13:30:01.301Z,95747.73
2023-06-04T13:32:29.350Z,95745.16
2023-06-04T13:34:57.401Z,95747.95
2023-06-04T13:37:25.817Z,95747.17
2023-06-04T13:39:53.829Z,95749.27
2023-06-04T13:42:22.660Z,95750.95
2023-06-04T13:44:51.001Z,95750.34
2023-06-04T13:47:19.456Z,95753.02
2023-06-04T13:49:47.585Z,95753.20
2023-06-04T13:52:15.623Z,95752.66
2023-06-04T13:54:44.073Z,95753.24
2023-06-04T13:57:12.727Z,95748.59
2023-06-04T13:59:41.424Z,95741.55
2023-06-04T14:02:09.555Z,95741.30
2023-06-04T14:04:37.730Z,95736.59
2023-06-04T14:07:07.358Z,95736.02
2023-06-04T14:09:36.430Z,95732.27
2023-06-04T14:12:04.857Z,95728.94
2023-06-04T14:14:37.647Z,95732.08
2023-06-04T14:17:06.624Z,95728.05
2023-06-04T14:19:34.922Z,95726.35
2023-06-04T14:22:03.553Z,95725.73
2023-06-04T14:24:31.685Z,95727.17
2023-06-04T14:26:59.738Z,95718.92
2023-06-04T14:29:27.654Z,95715.95
2023-06-04T14:31:55.798Z,95713.95
2023-06-04T14:34:24.063Z,95717.21
2023-06-04T14:36:52.312Z,95710.21
2023-06-04T14:39:22.776Z,95709.83
2023-06-04T14:41:51.875Z,95707.52
2023-06-04T14:44:19.954Z,95708.25
2023-06-04T14:46:48.248Z,95708.56
2023-06-04T14:49:16.679Z,95706.48
2023-06-04T14:51:44.806Z,95704.21
2023-06-04T14:54:12.876Z,95702.67
2023-06-04T14:56:40.874Z,95704.74
2023-06-04T14:59:12.419Z,95696.45
2023-06-04T15:01:41.940Z,95700.90
2023-06-04T15:04:10.221Z,95698.02
2023-06-04T15:06:38.441Z,95695.93
2023-06-04T15:09:06.601Z,95686.46
2023-06-04T15:11:34.631Z,95687.48
2023-06-04T15:14:02.650Z,95689.52
2023-06-04T15:16:30.888Z,95685.81
2023-06-04T15:18:59.318Z,95685.67
2023-06-04T15:21:27.521Z,95685.13
2023-06-04T15:23:55.845Z,95686.20
2023-06-04T15:26:25.974Z,95690.63
2023-06-04T15:28:55.088Z,95685.85
2023-06-04T15:31:23.289Z,95684.63
2023-06-04T15:33:51.653Z,95679.69
2023-06-04T15:36:19.691Z,95678.68
2023-06-04T15:38:49.271Z,95674.29
2023-06-04T15:41:19.037Z,95669.42
2023-06-04T15:43:47.136Z,95669.52
2023-06-04T15:46:15.125Z,95665.91
2023-06-04T15:48:43.310Z,95661.50
2023-06-04T15:51:11.708Z,95662.25
2023-06-04T15:53:39.705Z,95663.63
2023-06-04T15:56:07.919Z,95658.91
2023-06-04T15:58:36.128Z,95663.02
2023-06-04T16:01:04.274Z,95658.33
2023-06-04T16:03:32.397Z,95662.38
2023-06-04T16:06:00.606Z,95665.36
2023-06-04T16:08:28.536Z,95668.55
2023-06-04T16:10:56.507Z,95672.63
2023-06-04T16:13:24.506Z,95675.17
2023-06-04T16:15:52.773Z,95678.04
2023-06-04T16:18:20.939Z,95677.33
2023-06-04T16:20:48.949Z,95675.96
2023-06-04T16:23:17.331Z,95676.95
2023-06-04T16:25:45.901Z,95678.73
2023-06-04T16:28:14.586Z,95679.81
2023-06-04T16:30:42.676Z,95684.45
2023-06-04T16:33:11.049Z,95676.73
2023-06-04T16:35:39.231Z,95675.30
2023-06-04T16:38:07.365Z,95676.11
2023-06-04T16:40:35.319Z,95681.45
2023-06-04T16:43:03.665Z,95677.75
2023-06-04T16:45:31.891Z,95676.80
2023-06-04T16:47:59.966Z,95672.66
2023-06-04T16:50:28.161Z,95668.83
2023-06-04T16:52:56.540Z,95670.69
2023-06-04T16:55:32.192Z,95667.51
2023-06-04T16:58:13.319Z,95669.48
2023-06-04T17:00:42.018Z,95669.11
2023-06-04T17:03:10.257Z,95672.33
2023-06-04T17:05:38.689Z,95673.58
2023-06-04T17:08:07.288Z,95674.18
2023-06-04T17:10:35.501Z,95668.58
2023-06-04T17:13:03.621Z,95666.09
2023-06-04T17:15:31.579Z,95665.05
2023-06-04T17:18:02.565Z,95668.41
2023-06-04T17:20:31.655Z,95666.97
2023-06-04T17:23:03.532Z,95672.30
2023-06-04T17:25:33.152Z,95676.96
2023-06-04T17:28:01.614Z,95677.39
2023-06-04T17:30:29.741Z,95682.13
2023-06-04T17:32:57.700Z,95681.36
2023-06-04T17:35:25.830Z,95685.10
2023-06-04T17:37:53.974Z,95682.63
2023-06-04T17:40:23.482Z,95683.25
2023-06-04T17:42:52.817Z,95682.23
2023-06-04T17:45:20.986Z,95685.09
2023-06-04T17:47:48.968Z,95680.26
2023-06-04T17:50:17.017Z,95678.52
2023-06-04T17:52:48.255Z,95680.27
2023-06-04T17:55:16.794Z,95680.48
2023-06-04T17:57:44.889Z,95682.57
2023-06-04T18:00:13.447Z,95684.16
2023-06-04T18:02:41.994Z,95689.14
2023-06-04T18:05:10.640Z,95690.81
2023-06-04T18:07:38.597Z,95692.45
2023-06-04T18:10:07.090Z,95696.14
2023-06-04T18:12:36.722Z,95698.59
2023-06-04T18:15:07.384Z,95703.34
2023-06-04T18:17:35.557Z,95705.70
2023-06-04T18:20:03.902Z,95707.16
2023-06-04T18:22:32.038Z,95710.67
2023-06-04T18:25:00.148Z,95713.31
2023-06-04T18:27:28.644Z,95714.77
2023-06-04T18:29:56.851Z,95713.23
2023-06-04T18:32:24.772Z,95717.13
2023-06-04T18:34:52.864Z,95719.47
2023-06-04T18:37:21.276Z,95721.30
2023-06-04T18:39:49.430Z,95727.70
2023-06-04T18:42:30.179Z,95732.31
2023-06-04T18:45:01.061Z,95735.23
2023-06-04T18:47:29.660Z,95738.31
2023-06-04T18:49:57.765Z,95740.05
2023-06-04T18:52:25.861Z,95742.59
2023-06-04T18:54:53.951Z,95744.66
2023-06-04T18:57:22.337Z,95748.46
2023-06-04T18:59:50.335Z,95747.57
2023-06-04T19:02:18.308Z,95754.01
2023-06-04T19:04:47.062Z,95757.23
2023-06-04T19:07:15.284Z,95760.09
2023-06-04T19:09:43.505Z,95769.38
2023-06-04T19:12:11.508Z,95769.94
2023-06-04T19:14:39.488Z,95773.04
2023-06-04T19:17:08.188Z,95774.73
2023-06-04T19:19:36.159Z,95775.59
2023-06-04T19:22:04.324Z,95779.89
2023-06-04T19:24:33.072Z,95778.91
2023-06-04T19:27:01.167Z,95777.11
2023-06-04T19:29:29.153Z,95777.48
2023-06-04T19:31:57.417Z,95776.95
2023-06-04T19:34:26.003Z,95780.89
2023-06-04T19:36:54.112Z,95786.83
2023-06-04T19:39:22.125Z,95794.09
2023-06-04T19:41:50.046Z,95796.19
2023-06-04T19:44:18.599Z,95794.42
2023-06-04T19:46:49.619Z,95801.19
2023-06-04T19:49:20.718Z,95803.11
2023-06-04T19:51:49.107Z,95806.67
2023-06-04T19:54:17.234Z,95805.63
2023-06-04T19:56:45.596Z,95803.54
2023-06-04T19:59:13.680Z,95807.04
2023-06-04T20:01:41.603Z,95808.23
2023-06-04T20:04:09.671Z,95808.57
2023-06-04T20:06:37.830Z,95806.89
2023-06-04T20:09:05.771Z,95801.92
2023-06-04T20:11:33.754Z,95802.40
2023-06-04T20:14:02.027Z,95808.63
2023-06-04T20:16:30.842Z,95809.58
2023-06-04T20:18:58.953Z,95809.32
2023-06-04T20:21:34.808Z,95810.18
2023-06-04T20:24:04.857Z,95813.41
2023-06-04T20:26:34.234Z,95816.65
2023-06-04T20:29:02.606Z,95816.69
2023-06-04T20:31:30.726Z,95816.88
2023-06-04T20:33:58.955Z,95815.12
2023-06-04T20:36:27.754Z,95813.08
2023-06-04T20:38:57.380Z,95818.27
2023-06-04T20:41:26.171Z,95817.51
2023-06-04T20:43:55.734Z,95822.23
2023-06-04T20:46:23.857Z,95820.16
2023-06-04T20:48:51.922Z,95821.17
2023-06-04T20:51:19.941Z,95819.60
2023-06-04T20:53:48.476Z,95818.10
2023-06-04T20:56:17.054Z,95819.54
2023-06-04T20:58:45.102Z,95824.20
2023-06-04T21:01:13.287Z,95823.71
2023-06-04T21:03:41.481Z,95819.37
2023-06-04T21:06:09.886Z,95820.67
2023-06-04T21:08:38.194Z,95825.70
2023-06-04T21:11:06.536Z,95834.88
2023-06-04T21:13:35.338Z,95832.98
2023-06-04T21:16:03.500Z,95834.71
2023-06-04T21:18:31.499Z,95836.83
2023-06-04T21:20:59.570Z,95833.33
2023-06-04T21:23:27.791Z,95832.31
2023-06-04T21:25:56.306Z,95834.20
2023-06-04T21:28:24.274Z,95836.73
2023-06-04T21:30:52.205Z,95830.31
2023-06-04T21:33:20.166Z,95825.06
2023-06-04T21:35:48.179Z,95820.62
2023-06-04T21:38:16.328Z,95822.88
2023-06-04T21:40:44.412Z,95821.59
2023-06-04T21:43:12.383Z,95826.65
2023-06-04T21:45:41.302Z,95825.05
2023-06-04T21:48:09.244Z,95826.73
2023-06-04T21:50:37.275Z,95824.27
2023-06-04T21:53:05.347Z,95823.06
2023-06-04T21:55:33.320Z,95820.19
2023-06-04T21:58:01.258Z,95818.89
2023-06-04T22:00:29.482Z,95814.26
2023-06-04T22:02:57.574Z,95812.70
2023-06-04T22:05:25.860Z,95811.67
2023-06-04T22:07:54.244Z,95817.21
2023-06-04T22:10:22.333Z,95820.90
2023-06-04T22:12:50.299Z,95819.89
2023-06-04T22:15:18.330Z,95820.34
2023-06-04T22:17:46.434Z,95817.17
2023-06-04T22:20:14.551Z,95815.63
2023-06-04T22:22:42.501Z,95819.83
2023-06-04T22:25:10.527Z,95819.35
2023-06-04T22:27:38.776Z,95819.56
2023-06-04T22:30:07.303Z,95818.24
2023-06-04T22:32:35.677Z,95821.00
2023-06-04T22:35:03.697Z,95819.36
2023-06-04T22:37:31.759Z,95816.02
2023-06-04T22:40:01.918Z,95812.82
2023-06-04T22:42:31.340Z,95807.11
2023-06-04T22:44:59.594Z,95804.48
2023-06-04T22:47:27.714Z,95805.70
2023-06-04T22:49:55.674Z,95803.43
2023-06-04T22:52:24.588Z,95806.80
2023-06-04T22:54:53.087Z,95801.95
2023-06-04T22:57:21.691Z,95800.98
2023-06-04T22:59:49.641Z,95799.33
2023-06-04T23:02:17.646Z,95801.48
2023-06-04T23:04:45.669Z,95802.50
2023-06-04T23:07:13.663Z,95801.65
2023-06-04T23:09:41.817Z,95801.20
2023-06-04T23:12:10.015Z,95798.71
2023-06-04T23:14:38.115Z,95798.88
2023-06-04T23:17:06.195Z,95801.45
2023-06-04T23:19:34.205Z,95799.98
2023-06-04T23:22:02.183Z,95797.13
2023-06-04T23:24:30.183Z,95797.09
2023-06-04T23:26:58.122Z,95801.52
2023-06-04T23:29:26.220Z,95800.30
2023-06-04T23:31:54.287Z,95799.03
2023-06-04T23:34:22.255Z,95798.33
2023-06-04T23:36:50.180Z,95795.55
2023-06-04T23:39:18.798Z,95797.91
2023-06-04T23:41:46.790Z,95800.58
2023-06-04T23:44:16.819Z,95806.11
2023-06-04T23:46:46.418Z,95805.50
2023-06-04T23:49:14.392Z,95808.98
2023-06-04T23:51:42.321Z,95806.30
2023-06-04T23:54:11.265Z,95804.45
2023-06-04T23:56:41.381Z,95806.65
2023-06-04T23:59:10.467Z,95808.52
